Lewistown, Montana
Current Conditions -  °F | °C
As of 11:54 AM on Tuesday 21 Oct 2014 (Local Time) from KLWT Reporting Station
Broken Clouds Broken Clouds  
Wind Chill: 19°   Ceiling: 12000
Heat Index: 19°   Visibility: 10mi
Dew Point:   Wind: 16mph
Humidity: 36%   Direction: 200°SSW
Pressure: 29.69"   Gusts: 31mph
Location:  47.07°N, 109.42°W
Report Text: KLWT 211754Z AUTO 20014G27KT 10SM BKN120 19/04 A2969 RMK AO2 PK WND 22028/1730 SLP031 T01940039 10206 20094 55002
Loading
Personal Weather Stations






























Interactive Weather Map New forecast layout! Learn more

10-Day Weather Forecast

Advertisements
Track Severe Weather on mobile